Lincoln, Nebraska
Current Conditions -  °F | °C
As of 1:54 AM on Friday 31 Oct 2014 (Local Time) from KLNK Reporting Station
Overcast Overcast  
Wind Chill: 30°   Ceiling: 2700
Heat Index: 40°   Visibility: 10mi
Dew Point: 28°   Wind: 22mph
Humidity: 63%   Direction: 360°N
Pressure: 30.44"   Gusts: 31mph
Location:  40.81°N, 96.71°W
Report Text: KLNK 310654Z AUTO 36019G27KT 10SM OVC027 04/M02 A3044 RMK AO2 PK WND 02031/0632 SLP309 T00441022
Loading
Personal Weather Stations






























Interactive Weather Map
Tropical Storm Tracking
New forecast layout! Learn more

10-Day Weather Forecast

Advertisements
Track Severe Weather on mobile